createdAt,value
2023-03-04T00:04:10.057Z,1.00
2023-03-04T00:09:12.181Z,1.01
2023-03-04T00:14:14.328Z,0.93
2023-03-04T00:19:16.573Z,0.85
2023-03-04T00:24:18.597Z,0.77
2023-03-04T00:29:22.176Z,0.67
2023-03-04T00:34:24.311Z,0.60
2023-03-04T00:39:26.311Z,0.54
2023-03-04T00:44:28.410Z,0.53
2023-03-04T00:49:30.527Z,0.44
2023-03-04T00:54:33.220Z,0.45
2023-03-04T00:59:35.449Z,0.53
2023-03-04T01:04:37.904Z,0.58
2023-03-04T01:09:40.559Z,0.64
2023-03-04T01:14:42.680Z,0.66
2023-03-04T01:19:44.799Z,0.70
2023-03-04T01:24:47.105Z,0.69
2023-03-04T01:29:49.172Z,0.71
2023-03-04T01:34:51.229Z,0.66
2023-03-04T01:39:53.282Z,0.70
2023-03-04T01:44:55.426Z,0.66
2023-03-04T01:49:58.981Z,0.69
2023-03-04T01:55:01.118Z,0.71
2023-03-04T02:00:19.915Z,0.88
2023-03-04T02:05:22.570Z,0.65
2023-03-04T02:10:26.381Z,0.55
2023-03-04T02:15:29.929Z,0.55
2023-03-04T02:20:34.808Z,0.60
2023-03-04T02:25:47.917Z,0.42
2023-03-04T02:30:50.283Z,0.23
2023-03-04T02:35:52.723Z,0.23
2023-03-04T02:40:57.649Z,0.36
2023-03-04T02:46:00.518Z,0.25
2023-03-04T02:51:02.611Z,0.32
2023-03-04T02:56:08.115Z,0.26
2023-03-04T03:01:12.729Z,0.19
2023-03-04T03:06:14.840Z,0.21
2023-03-04T03:11:17.110Z,0.25
2023-03-04T03:16:20.332Z,0.26
2023-03-04T03:21:22.403Z,0.26
2023-03-04T03:26:25.169Z,0.28
2023-03-04T03:31:27.365Z,0.34
2023-03-04T03:36:29.586Z,0.40
2023-03-04T03:41:31.933Z,0.41
2023-03-04T03:46:35.393Z,0.49
2023-03-04T03:51:37.572Z,0.43
2023-03-04T03:56:39.682Z,0.29
2023-03-04T04:01:41.943Z,0.09
2023-03-04T04:06:44.140Z,0.16
2023-03-04T04:11:46.255Z,0.14
2023-03-04T04:16:48.446Z,0.14
2023-03-04T04:21:50.668Z,0.05
2023-03-04T04:26:53.008Z,0.14
2023-03-04T04:31:55.104Z,0.18
2023-03-04T04:36:57.297Z,0.18
2023-03-04T04:41:59.380Z,0.16
2023-03-04T04:47:01.527Z,0.07
2023-03-04T04:52:03.810Z,-0.01
2023-03-04T04:57:05.878Z,-0.10
2023-03-04T05:02:08.092Z,-0.13
2023-03-04T05:07:10.214Z,-0.17
2023-03-04T05:12:12.294Z,-0.19
2023-03-04T05:17:14.442Z,-0.17
2023-03-04T05:22:16.600Z,0.03
2023-03-04T05:27:18.577Z,0.13
2023-03-04T05:32:20.783Z,0.32
2023-03-04T05:37:22.923Z,0.43
2023-03-04T05:42:24.936Z,0.54
2023-03-04T05:47:26.935Z,0.94
2023-03-04T05:52:28.953Z,1.60
2023-03-04T05:57:32.469Z,2.05
2023-03-04T06:02:34.629Z,2.08
2023-03-04T06:07:37.172Z,1.91
2023-03-04T06:12:39.537Z,1.81
2023-03-04T06:17:42.761Z,1.93
2023-03-04T06:22:44.907Z,1.89
2023-03-04T06:27:46.977Z,1.83
2023-03-04T06:32:49.643Z,1.94
2023-03-04T06:37:51.785Z,2.14
2023-03-04T06:42:53.896Z,2.28
2023-03-04T06:47:56.033Z,2.37
2023-03-04T06:52:58.221Z,2.39
2023-03-04T06:58:00.345Z,2.40
2023-03-04T07:03:02.401Z,2.35
2023-03-04T07:08:04.643Z,2.35
2023-03-04T07:13:06.860Z,2.59
2023-03-04T07:18:09.025Z,3.11
2023-03-04T07:23:11.120Z,3.51
2023-03-04T07:28:13.163Z,3.65
2023-03-04T07:33:15.576Z,3.61
2023-03-04T07:38:17.686Z,3.77
2023-03-04T07:43:20.031Z,4.19
2023-03-04T07:48:22.118Z,4.20
2023-03-04T07:53:24.208Z,4.14
2023-03-04T07:58:26.462Z,3.97
2023-03-04T08:03:29.862Z,3.76
2023-03-04T08:08:31.913Z,3.81
2023-03-04T08:13:35.276Z,3.84
2023-03-04T08:18:39.836Z,3.56
2023-03-04T08:23:42.704Z,3.30
2023-03-04T08:28:45.916Z,3.40
2023-03-04T08:33:48.655Z,3.62
2023-03-04T08:38:50.737Z,3.72
2023-03-04T08:43:52.896Z,3.62
2023-03-04T08:48:54.920Z,3.62
2023-03-04T08:53:56.979Z,3.62
2023-03-04T08:58:59.579Z,3.61
2023-03-04T09:04:01.639Z,3.50
2023-03-04T09:09:04.496Z,3.47
2023-03-04T09:14:06.535Z,3.56
2023-03-04T09:19:08.614Z,3.66
2023-03-04T09:24:10.724Z,4.34
2023-03-04T09:29:12.831Z,4.76
2023-03-04T09:34:15.208Z,5.46
2023-03-04T09:39:17.233Z,6.51
2023-03-04T09:44:19.085Z,6.72
2023-03-04T09:49:22.536Z,5.53
2023-03-04T09:54:32.724Z,4.99
2023-03-04T09:59:50.379Z,4.41
2023-03-04T10:04:59.393Z,4.03
2023-03-04T10:10:14.553Z,3.89
2023-03-04T10:15:44.208Z,3.86
2023-03-04T10:20:56.455Z,4.32
2023-03-04T10:26:00.564Z,4.65
2023-03-04T10:31:05.600Z,4.90
2023-03-04T10:36:31.803Z,5.56
2023-03-04T10:41:33.920Z,5.45
2023-03-04T10:46:44.053Z,5.31
2023-03-04T10:52:05.457Z,4.98
2023-03-04T10:57:19.345Z,4.68
2023-03-04T11:02:26.984Z,4.33
2023-03-04T11:07:29.027Z,4.13
2023-03-04T11:12:35.210Z,4.07
2023-03-04T11:17:45.677Z,3.94
2023-03-04T11:22:47.740Z,3.72
2023-03-04T11:27:54.401Z,3.69
2023-03-04T11:33:04.895Z,3.61
2023-03-04T11:38:17.637Z,3.41
2023-03-04T11:43:28.441Z,3.28
2023-03-04T11:49:02.126Z,3.07
2023-03-04T11:54:34.898Z,3.15
2023-03-04T12:00:13.612Z,3.17
2023-03-04T12:05:50.851Z,3.14
2023-03-04T12:10:58.635Z,2.90
2023-03-04T12:16:16.156Z,2.69
2023-03-04T12:22:15.368Z,2.66
2023-03-04T12:27:51.972Z,2.46
2023-03-04T12:33:12.402Z,2.30
2023-03-04T12:38:43.785Z,2.34
2023-03-04T12:44:03.969Z,2.51
2023-03-04T12:49:35.486Z,2.46
2023-03-04T12:54:45.845Z,2.23
2023-03-04T13:00:14.942Z,2.35
2023-03-04T13:05:23.016Z,2.26
2023-03-04T13:10:25.795Z,2.14
2023-03-04T13:15:29.617Z,2.11
2023-03-04T13:20:31.616Z,2.16
2023-03-04T13:25:45.418Z,2.28
2023-03-04T13:30:57.108Z,2.35
2023-03-04T13:36:19.036Z,2.61
2023-03-04T13:41:22.108Z,2.36
2023-03-04T13:46:24.262Z,2.28
2023-03-04T13:51:37.475Z,2.14
2023-03-04T13:56:50.383Z,2.16
2023-03-04T14:02:04.154Z,2.12
2023-03-04T14:07:44.660Z,2.23
2023-03-04T14:12:54.568Z,2.11
2023-03-04T14:17:59.129Z,1.99
2023-03-04T14:23:04.286Z,2.01
2023-03-04T14:28:08.936Z,1.96
2023-03-04T14:33:22.114Z,1.92
2023-03-04T14:38:38.281Z,1.84
2023-03-04T14:43:58.780Z,1.85
2023-03-04T14:49:01.286Z,1.76
2023-03-04T14:54:03.279Z,1.82
2023-03-04T14:59:05.273Z,1.83
2023-03-04T15:04:12.560Z,1.90
2023-03-04T15:09:20.628Z,1.97
2023-03-04T15:14:47.380Z,2.00
2023-03-04T15:20:02.304Z,1.96
2023-03-04T15:25:06.190Z,1.73
2023-03-04T15:30:34.491Z,1.90
2023-03-04T15:35:36.769Z,1.71
2023-03-04T15:40:43.340Z,1.79
2023-03-04T15:45:45.682Z,1.72
2023-03-04T15:50:59.534Z,1.87
2023-03-04T15:56:03.804Z,1.82
2023-03-04T16:01:06.338Z,1.85
2023-03-04T16:06:13.473Z,1.91
2023-03-04T16:11:18.840Z,1.85
2023-03-04T16:16:21.230Z,1.81
2023-03-04T16:21:23.512Z,1.82
2023-03-04T16:26:26.781Z,1.86
2023-03-04T16:31:28.833Z,1.89
2023-03-04T16:36:31.274Z,1.89
2023-03-04T16:41:35.928Z,1.88
2023-03-04T16:46:38.048Z,1.94
2023-03-04T16:51:47.487Z,2.00
2023-03-04T16:56:49.497Z,2.02
2023-03-04T17:01:53.693Z,2.03
2023-03-04T17:06:55.934Z,2.02
2023-03-04T17:11:59.993Z,1.93
2023-03-04T17:17:04.040Z,2.13
2023-03-04T17:22:06.155Z,2.13
2023-03-04T17:27:08.209Z,2.13
2023-03-04T17:32:10.316Z,2.09
2023-03-04T17:37:12.661Z,2.11
2023-03-04T17:42:14.902Z,2.14
2023-03-04T17:47:17.385Z,2.18
2023-03-04T17:52:19.401Z,2.05
2023-03-04T17:57:21.504Z,1.99
2023-03-04T18:02:23.890Z,1.93
2023-03-04T18:07:25.918Z,1.87
2023-03-04T18:12:27.996Z,1.82
2023-03-04T18:17:30.012Z,1.70
2023-03-04T18:22:32.169Z,1.73
2023-03-04T18:27:34.400Z,1.74
2023-03-04T18:32:51.036Z,1.58
2023-03-04T18:38:00.347Z,1.75
2023-03-04T18:43:03.020Z,1.60
2023-03-04T18:48:05.317Z,1.61
2023-03-04T18:53:07.330Z,1.62
2023-03-04T18:58:09.339Z,1.68
2023-03-04T19:03:13.419Z,1.77
2023-03-04T19:08:15.658Z,1.70
2023-03-04T19:13:18.601Z,1.71
2023-03-04T19:18:20.968Z,1.64
2023-03-04T19:23:23.050Z,1.51
2023-03-04T19:28:25.056Z,1.50
2023-03-04T19:33:27.141Z,1.27
2023-03-04T19:38:29.256Z,1.35
2023-03-04T19:43:32.297Z,1.22
2023-03-04T19:48:35.420Z,1.27
2023-03-04T19:53:37.928Z,1.32
2023-03-04T19:58:40.162Z,1.22
2023-03-04T20:03:42.146Z,1.22
2023-03-04T20:08:44.157Z,1.27
2023-03-04T20:13:46.191Z,1.20
2023-03-04T20:18:48.216Z,1.21
2023-03-04T20:23:50.883Z,1.18
2023-03-04T20:28:52.859Z,1.10
2023-03-04T20:33:55.869Z,1.11
2023-03-04T20:39:04.204Z,1.18
2023-03-04T20:44:08.786Z,1.10
2023-03-04T20:49:13.351Z,1.07
2023-03-04T20:54:15.585Z,1.07
2023-03-04T20:59:17.824Z,1.00
2023-03-04T21:04:20.866Z,1.13
2023-03-04T21:09:23.705Z,1.12
2023-03-04T21:14:28.176Z,1.15
2023-03-04T21:19:36.533Z,1.15
2023-03-04T21:24:39.956Z,1.07
2023-03-04T21:29:42.176Z,0.94
2023-03-04T21:34:48.470Z,1.04
2023-03-04T21:39:50.591Z,0.93
2023-03-04T21:44:52.618Z,0.99
2023-03-04T21:49:54.689Z,0.97
2023-03-04T21:54:56.884Z,1.03
2023-03-04T21:59:59.003Z,0.94
2023-03-04T22:05:01.008Z,0.93
2023-03-04T22:10:06.762Z,0.97
2023-03-04T22:15:10.418Z,0.96
2023-03-04T22:20:13.153Z,0.88
2023-03-04T22:25:15.324Z,0.83
2023-03-04T22:30:18.146Z,0.74
2023-03-04T22:35:20.242Z,0.83
2023-03-04T22:40:22.491Z,0.93
2023-03-04T22:45:27.991Z,0.78
2023-03-04T22:50:30.081Z,0.79
2023-03-04T22:55:32.129Z,0.72
2023-03-04T23:00:36.180Z,0.61
2023-03-04T23:05:38.281Z,0.62
2023-03-04T23:10:42.473Z,0.76
2023-03-04T23:15:44.486Z,0.72
2023-03-04T23:20:46.566Z,0.72
2023-03-04T23:25:52.072Z,0.68
2023-03-04T23:30:54.359Z,0.78
2023-03-04T23:35:56.444Z,0.76
2023-03-04T23:40:59.551Z,0.70
2023-03-04T23:46:01.641Z,0.75
2023-03-04T23:51:04.396Z,0.67
2023-03-04T23:56:15.249Z,0.72
